Time;durP1;ratioP1;P1;durP2;ratioP2;P2;SDS_P1;SDS_P2;PMS_P1;PMS_P2;Temp;Humidity;BMP_temperature;BMP_pressure;BME280_temperature;BME280_humidity;BME280_pressure;Samples;Min_cycle;Max_cycle;Signal;HPM_P1;HPM_P2
2022/03/03 00:00:07;;;;;;;;;;;;;;;;;;5083001;28;1143;-75
2022/03/03 00:02:33;;;;;;;;;;;;;;;;;;5082218;28;1128;-75
2022/03/03 00:04:58;;;;;;;;;;;;;;;;;;5056786;28;1168;-74
2022/03/03 00:07:24;;;;;;;;;;;;;;;;;;5063661;28;1147;-75
2022/03/03 00:09:49;;;;;;;;;;;;;;;;;;5082443;28;1112;-74
2022/03/03 00:12:14;;;;;;;;;;;;;;;;;;5046862;28;1256;-75
2022/03/03 00:14:40;;;;;;;;;;;;;;;;;;5063732;28;1910;-75
2022/03/03 00:17:05;;;;;;;;;;;;;;;;;;5083214;28;1183;-75
2022/03/03 00:19:30;;;;;;;;;;;;;;;;;;5079671;28;1175;-74
2022/03/03 00:21:56;;;;;;;;;;;;;;;;;;5080374;28;1061;-74
2022/03/03 00:24:21;;;;;;;;;;;;;;;;;;5064161;28;1176;-75
2022/03/03 00:26:46;;;;;;;;;;;;;;;;;;5081140;28;1171;-75
2022/03/03 00:29:11;;;;;;;;;;;;;;;;;;5049193;28;1180;-75
2022/03/03 00:31:40;;;;;;;;;;;;;;;;;;5081988;28;1164;-74
2022/03/03 00:34:05;;;;;;;;;;;;;;;;;;5081089;28;1967;-75
2022/03/03 00:36:31;;;;;;;;;;;;;;;;;;5079777;28;1259;-74
2022/03/03 00:38:56;;;;;;;;;;;;;;;;;;5107561;28;1163;-75
2022/03/03 00:41:21;;;;;;;;;;;;;;;;;;5084005;28;1348;-75
2022/03/03 00:43:46;;;;;;;;;;;;;;;;;;5101132;28;1179;-75
2022/03/03 00:46:12;;;;;;;;;;;;;;;;;;5085000;28;1211;-73
2022/03/03 00:48:40;;;;;;;;;;;;;;;;;;5102148;28;1194;-75
2022/03/03 00:51:08;;;;;;;;;;;;;;;;;;5087988;28;1200;-75
2022/03/03 00:53:34;;;;;;;;;;;;;;;;;;5089980;28;1136;-75
2022/03/03 00:56:00;;;;;;;;;;;;;;;;;;5086963;28;1898;-74
2022/03/03 00:58:25;;;;;;;;;;;;;;;;;;5088124;28;1456;-76
2022/03/03 01:00:50;;;;;;;;;;;;;;;;;;5107259;28;1206;-74
2022/03/03 01:03:15;;;;;;;;;;;;;;;;;;5055059;28;1247;-75
2022/03/03 01:05:41;;;;;;;;;;;;;;;;;;5065244;28;1136;-75
2022/03/03 01:08:10;;;;;;;;;;;;;;;;;;5086031;28;1303;-75
2022/03/03 01:10:35;;;;;;;;;;;;;;;;;;5105913;28;1264;-75
2022/03/03 01:13:00;;;;;;;;;;;;;;;;;;5084713;28;1435;-75
2022/03/03 01:15:26;;;;;;;;;;;;;;;;;;5108836;28;1913;-75
2022/03/03 01:17:51;;;;;;;;;;;;;;;;;;5070053;28;1227;-75
2022/03/03 01:20:16;;;;;;;;;;;;;;;;;;5084908;28;1248;-75
2022/03/03 01:22:42;;;;;;;;;;;;;;;;;;5078111;28;1262;-75
2022/03/03 01:25:08;;;;;;;;;;;;;;;;;;5052022;28;1207;-74
2022/03/03 01:27:33;;;;;;;;;;;;;;;;;;5084651;28;1219;-75
2022/03/03 01:29:59;;;;;;;;;;;;;;;;;;5067387;28;1092;-75
2022/03/03 01:32:24;;;;;;;;;;;;;;;;;;5085969;28;1128;-75
2022/03/03 01:34:49;;;;;;;;;;;;;;;;;;5080099;28;1951;-74
2022/03/03 01:37:14;;;;;;;;;;;;;;;;;;5068729;28;1326;-75
2022/03/03 01:39:46;;;;;;;;;;;;;;;;;;5052089;28;1184;-75
2022/03/03 01:42:12;;;;;;;;;;;;;;;;;;5084440;28;1128;-74
2022/03/03 01:44:41;;;;;;;;;;;;;;;;;;5086375;28;1128;-74
2022/03/03 01:47:14;;;;;;;;;;;;;;;;;;5066995;28;1399;-75
2022/03/03 01:49:39;;;;;;;;;;;;;;;;;;5080421;28;1084;-75
2022/03/03 01:52:05;;;;;;;;;;;;;;;;;;5066947;28;1203;-74
2022/03/03 01:54:30;;;;;;;;;;;;;;;;;;5085530;28;2000;-75
2022/03/03 01:56:55;;;;;;;;;;;;;;;;;;5063548;28;1187;-74
2022/03/03 01:59:20;;;;;;;;;;;;;;;;;;5067271;28;1261;-74
2022/03/03 02:01:46;;;;;;;;;;;;;;;;;;5067048;28;1412;-75
2022/03/03 02:04:12;;;;;;;;;;;;;;;;;;5064703;28;1302;-74
2022/03/03 02:06:37;;;;;;;;;;;;;;;;;;5063590;28;1120;-74
2022/03/03 02:09:03;;;;;;;;;;;;;;;;;;5049762;28;1282;-74
2022/03/03 02:11:30;;;;;;;;;;;;;;;;;;5064355;28;1152;-74
2022/03/03 02:13:56;;;;;;;;;;;;;;;;;;5067144;28;1182;-74
2022/03/03 02:16:22;;;;;;;;;;;;;;;;;;5060360;28;1961;-74
2022/03/03 02:18:48;;;;;;;;;;;;;;;;;;5100541;28;1152;-75
2022/03/03 02:21:15;;;;;;;;;;;;;;;;;;5085806;28;1235;-75
2022/03/03 02:23:40;;;;;;;;;;;;;;;;;;5068206;28;1218;-75
2022/03/03 02:26:07;;;;;;;;;;;;;;;;;;5083270;28;1215;-75
2022/03/03 02:28:33;;;;;;;;;;;;;;;;;;5064073;28;1389;-74
2022/03/03 02:30:59;;;;;;;;;;;;;;;;;;5066003;28;1347;-75
2022/03/03 02:33:24;;;;;;;;;;;;;;;;;;5066221;28;1222;-75
2022/03/03 02:35:49;;;;;;;;;;;;;;;;;;5085660;28;1898;-75
2022/03/03 02:38:14;;;;;;;;;;;;;;;;;;5105876;28;1198;-75
2022/03/03 02:40:40;;;;;;;;;;;;;;;;;;5088228;28;1159;-75
2022/03/03 02:43:05;;;;;;;;;;;;;;;;;;5083742;28;1301;-75
2022/03/03 02:45:30;;;;;;;;;;;;;;;;;;5070655;28;1329;-75
2022/03/03 02:47:55;;;;;;;;;;;;;;;;;;5088009;28;1277;-74
2022/03/03 02:50:23;;;;;;;;;;;;;;;;;;5081873;28;1288;-75
2022/03/03 02:52:49;;;;;;;;;;;;;;;;;;5086051;28;1289;-75
2022/03/03 02:55:17;;;;;;;;;;;;;;;;;;5070815;28;1898;-75
2022/03/03 02:57:54;;;;;;;;;;;;;;;;;;5050675;28;1196;-75
2022/03/03 03:00:27;;;;;;;;;;;;;;;;;;5085162;28;1238;-75
2022/03/03 03:02:52;;;;;;;;;;;;;;;;;;5086831;28;1184;-75
2022/03/03 03:05:18;;;;;;;;;;;;;;;;;;5082814;28;1456;-74
2022/03/03 03:07:43;;;;;;;;;;;;;;;;;;5105987;28;1167;-75
2022/03/03 03:10:09;;;;;;;;;;;;;;;;;;5085063;28;1230;-75
2022/03/03 03:12:34;;;;;;;;;;;;;;;;;;5103566;28;1139;-74
2022/03/03 03:14:59;;;;;;;;;;;;;;;;;;5086612;28;1963;-75
2022/03/03 03:17:25;;;;;;;;;;;;;;;;;;5105038;28;1155;-73
2022/03/03 03:19:50;;;;;;;;;;;;;;;;;;5079987;28;1227;-75
2022/03/03 03:22:15;;;;;;;;;;;;;;;;;;5071534;28;1295;-75
2022/03/03 03:24:41;;;;;;;;;;;;;;;;;;5096220;28;1080;-76
2022/03/03 03:27:06;;;;;;;;;;;;;;;;;;5045150;28;1199;-74
2022/03/03 03:29:31;;;;;;;;;;;;;;;;;;5067225;28;1219;-75
2022/03/03 03:31:57;;;;;;;;;;;;;;;;;;5064487;28;1203;-74
2022/03/03 03:34:23;;;;;;;;;;;;;;;;;;5062705;28;1960;-74
2022/03/03 03:36:49;;;;;;;;;;;;;;;;;;5048678;28;1112;-75
2022/03/03 03:39:15;;;;;;;;;;;;;;;;;;5047912;28;1329;-75
2022/03/03 03:41:43;;;;;;;;;;;;;;;;;;5044343;28;1240;-75
2022/03/03 03:44:08;;;;;;;;;;;;;;;;;;5081725;28;1103;-75
2022/03/03 03:46:33;;;;;;;;;;;;;;;;;;5065415;28;1113;-74
2022/03/03 03:48:58;;;;;;;;;;;;;;;;;;5080140;28;1279;-74
2022/03/03 03:51:24;;;;;;;;;;;;;;;;;;5063864;28;1492;-75
2022/03/03 03:53:49;;;;;;;;;;;;;;;;;;5083513;28;1384;-75
2022/03/03 03:56:15;;;;;;;;;;;;;;;;;;5061243;28;1890;-75
2022/03/03 03:58:40;;;;;;;;;;;;;;;;;;5049619;28;1152;-74
2022/03/03 04:01:08;;;;;;;;;;;;;;;;;;5049313;28;1481;-73
2022/03/03 04:03:34;;;;;;;;;;;;;;;;;;5045523;28;1205;-75
2022/03/03 04:05:59;;;;;;;;;;;;;;;;;;5045554;28;1293;-75
2022/03/03 04:08:24;;;;;;;;;;;;;;;;;;5077729;28;1164;-75
2022/03/03 04:10:50;;;;;;;;;;;;;;;;;;5086715;28;1155;-75
2022/03/03 04:13:15;;;;;;;;;;;;;;;;;;5065584;28;1274;-75
2022/03/03 04:15:41;;;;;;;;;;;;;;;;;;5085635;28;1967;-75
2022/03/03 04:18:10;;;;;;;;;;;;;;;;;;5082044;28;1177;-76
2022/03/03 04:20:35;;;;;;;;;;;;;;;;;;5067421;28;1223;-75
2022/03/03 04:23:01;;;;;;;;;;;;;;;;;;5067605;28;1316;-76
2022/03/03 04:25:26;;;;;;;;;;;;;;;;;;5108616;28;1143;-74
2022/03/03 04:27:55;;;;;;;;;;;;;;;;;;5086800;28;1287;-74
2022/03/03 04:30:20;;;;;;;;;;;;;;;;;;5082476;28;1226;-75
2022/03/03 04:32:46;;;;;;;;;;;;;;;;;;5054403;28;1196;-75
2022/03/03 04:35:11;;;;;;;;;;;;;;;;;;5064377;28;1939;-75
2022/03/03 04:37:37;;;;;;;;;;;;;;;;;;5070179;28;1148;-75
2022/03/03 04:40:03;;;;;;;;;;;;;;;;;;5083146;28;1123;-75
2022/03/03 04:42:28;;;;;;;;;;;;;;;;;;5086670;28;1147;-75
2022/03/03 04:44:54;;;;;;;;;;;;;;;;;;5087347;28;1230;-74
2022/03/03 04:47:20;;;;;;;;;;;;;;;;;;5066016;28;1305;-74
2022/03/03 04:49:46;;;;;;;;;;;;;;;;;;5049302;28;1251;-75
2022/03/03 04:52:11;;;;;;;;;;;;;;;;;;5084782;28;1112;-75
2022/03/03 04:54:36;;;;;;;;;;;;;;;;;;5086509;28;1889;-75
2022/03/03 04:57:02;;;;;;;;;;;;;;;;;;5053484;28;1172;-75
2022/03/03 04:59:27;;;;;;;;;;;;;;;;;;5087496;28;1246;-75
2022/03/03 05:01:52;;;;;;;;;;;;;;;;;;5052644;28;1434;-74
2022/03/03 05:04:22;;;;;;;;;;;;;;;;;;5065845;28;1140;-74
2022/03/03 05:06:50;;;;;;;;;;;;;;;;;;5068022;28;1244;-74
2022/03/03 05:09:16;;;;;;;;;;;;;;;;;;5066856;28;1389;-74
2022/03/03 05:11:41;;;;;;;;;;;;;;;;;;5083390;28;1199;-74
2022/03/03 05:14:06;;;;;;;;;;;;;;;;;;5085537;28;1136;-74
2022/03/03 05:16:32;;;;;;;;;;;;;;;;;;5069022;28;1898;-74
2022/03/03 05:18:58;;;;;;;;;;;;;;;;;;5066248;28;1187;-74
2022/03/03 05:21:24;;;;;;;;;;;;;;;;;;5065213;28;1235;-74
2022/03/03 05:23:49;;;;;;;;;;;;;;;;;;5052570;28;1361;-75
2022/03/03 05:26:15;;;;;;;;;;;;;;;;;;5082334;28;1258;-74
2022/03/03 05:28:40;;;;;;;;;;;;;;;;;;5066925;28;1199;-74
2022/03/03 05:31:06;;;;;;;;;;;;;;;;;;5066151;28;1156;-75
2022/03/03 05:33:32;;;;;;;;;;;;;;;;;;5050747;28;1461;-74
2022/03/03 05:35:59;;;;;;;;;;;;;;;;;;5065488;28;1933;-75
2022/03/03 05:38:29;;;;;;;;;;;;;;;;;;5082586;28;1172;-75
2022/03/03 05:40:55;;;;;;;;;;;;;;;;;;5107407;28;1155;-75
2022/03/03 05:43:21;;;;;;;;;;;;;;;;;;5102692;28;1131;-75
2022/03/03 05:45:47;;;;;;;;;;;;;;;;;;5088540;28;1503;-74
2022/03/03 05:48:15;;;;;;;;;;;;;;;;;;5066830;28;1413;-75
2022/03/03 05:50:40;;;;;;;;;;;;;;;;;;5084706;28;1306;-75
2022/03/03 05:53:06;;;;;;;;;;;;;;;;;;5084577;28;1057;-74
2022/03/03 05:55:32;;;;;;;;;;;;;;;;;;5059746;28;1935;-75
2022/03/03 05:58:01;;;;;;;;;;;;;;;;;;5069341;28;1366;-74
2022/03/03 06:00:29;;;;;;;;;;;;;;;;;;5088906;28;1190;-74
2022/03/03 06:02:54;;;;;;;;;;;;;;;;;;5088650;28;1381;-75
2022/03/03 06:05:22;;;;;;;;;;;;;;;;;;5102955;28;1096;-75
2022/03/03 06:07:50;;;;;;;;;;;;;;;;;;5106820;28;1115;-76
2022/03/03 06:10:23;;;;;;;;;;;;;;;;;;5085210;28;1370;-74
2022/03/03 06:12:51;;;;;;;;;;;;;;;;;;5105943;28;1175;-75
2022/03/03 06:15:18;;;;;;;;;;;;;;;;;;5103944;28;1967;-75
2022/03/03 06:17:44;;;;;;;;;;;;;;;;;;5086739;28;1166;-75
2022/03/03 06:20:09;;;;;;;;;;;;;;;;;;5083792;28;1199;-75
2022/03/03 06:22:35;;;;;;;;;;;;;;;;;;5106535;28;1167;-74
2022/03/03 06:25:05;;;;;;;;;;;;;;;;;;5071305;28;1160;-74
2022/03/03 06:27:31;;;;;;;;;;;;;;;;;;5082250;28;1436;-74
2022/03/03 06:29:56;;;;;;;;;;;;;;;;;;5086805;28;1116;-75
2022/03/03 06:32:22;;;;;;;;;;;;;;;;;;5070375;28;1211;-75
2022/03/03 06:34:47;;;;;;;;;;;;;;;;;;5083163;28;1877;-75
2022/03/03 06:37:12;;;;;;;;;;;;;;;;;;5066848;28;1092;-74
2022/03/03 06:39:38;;;;;;;;;;;;;;;;;;5067065;28;1199;-75
2022/03/03 06:42:04;;;;;;;;;;;;;;;;;;5049395;28;1247;-76
2022/03/03 06:44:29;;;;;;;;;;;;;;;;;;5061483;28;1382;-76
2022/03/03 06:46:55;;;;;;;;;;;;;;;;;;5105776;28;1360;-75
2022/03/03 06:49:29;;;;;;;;;;;;;;;;;;5067296;28;1354;-75
2022/03/03 06:51:56;;;;;;;;;;;;;;;;;;5105340;28;1076;-75
2022/03/03 06:54:22;;;;;;;;;;;;;;;;;;5086814;28;1951;-77
2022/03/03 06:56:49;;;;;;;;;;;;;;;;;;5071839;28;1311;-76
2022/03/03 06:59:16;;;;;;;;;;;;;;;;;;5085543;28;1239;-80
2022/03/03 07:01:42;;;;;;;;;;;;;;;;;;5105500;28;1140;-74
2022/03/03 07:04:14;;;;;;;;;;;;;;;;;;5079171;28;1239;-79
2022/03/03 07:06:48;;;;;;;;;;;;;;;;;;5071594;28;1204;-77
2022/03/03 07:09:14;;;;;;;;;;;;;;;;;;5087709;28;1159;-74
2022/03/03 07:11:40;;;;;;;;;;;;;;;;;;5084178;28;1194;-74
2022/03/03 07:14:06;;;;;;;;;;;;;;;;;;5084061;28;1234;-74
2022/03/03 07:16:35;;;;;;;;;;;;;;;;;;5064340;28;1973;-73
2022/03/03 07:19:02;;;;;;;;;;;;;;;;;;5064848;28;1282;-74
2022/03/03 07:21:42;;;;;;;;;;;;;;;;;;5096340;28;1041;-75
2022/03/03 07:24:20;;;;;;;;;;;;;;;;;;5074081;28;1187;-74
2022/03/03 07:26:46;;;;;;;;;;;;;;;;;;5063534;28;1207;-74
2022/03/03 07:29:13;;;;;;;;;;;;;;;;;;5047293;28;1401;-75
2022/03/03 07:31:47;;;;;;;;;;;;;;;;;;5063720;28;1183;-75
2022/03/03 07:34:13;;;;;;;;;;;;;;;;;;5081653;28;1179;-75
2022/03/03 07:36:40;;;;;;;;;;;;;;;;;;5080914;28;1901;-75
2022/03/03 07:39:06;;;;;;;;;;;;;;;;;;5065463;28;1231;-74
2022/03/03 07:41:31;;;;;;;;;;;;;;;;;;5065720;28;1251;-74
2022/03/03 07:43:57;;;;;;;;;;;;;;;;;;5104573;28;1155;-75
2022/03/03 07:46:23;;;;;;;;;;;;;;;;;;5068648;28;1215;-75
2022/03/03 07:48:51;;;;;;;;;;;;;;;;;;5084209;28;1267;-75
2022/03/03 07:51:16;;;;;;;;;;;;;;;;;;5083574;28;1210;-75
2022/03/03 07:53:43;;;;;;;;;;;;;;;;;;5088442;28;1210;-74
2022/03/03 07:56:20;;;;;;;;;;;;;;;;;;5104899;28;1971;-74
2022/03/03 07:58:47;;;;;;;;;;;;;;;;;;5094833;28;1240;-74
2022/03/03 08:01:17;;;;;;;;;;;;;;;;;;5111580;28;1171;-75
2022/03/03 08:03:44;;;;;;;;;;;;;;;;;;5092264;28;1222;-75
2022/03/03 08:06:13;;;;;;;;;;;;;;;;;;5109219;28;1282;-75
2022/03/03 08:08:39;;;;;;;;;;;;;;;;;;5112869;28;1139;-73
2022/03/03 08:11:17;;;;;;;;;;;;;;;;;;5111184;28;1191;-75
2022/03/03 08:13:42;;;;;;;;;;;;;;;;;;5095737;28;1064;-74
2022/03/03 08:16:08;;;;;;;;;;;;;;;;;;5093317;28;1917;-74
2022/03/03 08:18:37;;;;;;;;;;;;;;;;;;5090707;28;1171;-74
2022/03/03 08:21:03;;;;;;;;;;;;;;;;;;5091381;28;1388;-75
2022/03/03 08:23:29;;;;;;;;;;;;;;;;;;5074654;28;1358;-74
2022/03/03 08:25:55;;;;;;;;;;;;;;;;;;5093220;28;1253;-76
2022/03/03 08:28:23;;;;;;;;;;;;;;;;;;5081185;28;1262;-75
2022/03/03 08:30:50;;;;;;;;;;;;;;;;;;5087066;28;1282;-77
2022/03/03 08:33:20;;;;;;;;;;;;;;;;;;5085160;28;1491;-77
2022/03/03 08:35:52;;;;;;;;;;;;;;;;;;5091041;28;1905;-77
2022/03/03 08:38:22;;;;;;;;;;;;;;;;;;5091643;28;1277;-77
2022/03/03 08:40:50;;;;;;;;;;;;;;;;;;5092615;28;1274;-75
2022/03/03 08:43:21;;;;;;;;;;;;;;;;;;5086752;28;1179;-77
2022/03/03 08:45:48;;;;;;;;;;;;;;;;;;5088371;28;1190;-80
2022/03/03 08:48:19;;;;;;;;;;;;;;;;;;5076376;28;1282;-78
2022/03/03 08:50:45;;;;;;;;;;;;;;;;;;5089633;28;1272;-80
2022/03/03 08:53:16;;;;;;;;;;;;;;;;;;5085732;28;1283;-82
2022/03/03 08:55:41;;;;;;;;;;;;;;;;;;5091146;28;1945;-80
2022/03/03 08:58:07;;;;;;;;;;;;;;;;;;5104017;28;1151;-80
2022/03/03 09:00:32;;;;;;;;;;;;;;;;;;5095883;28;1309;-79
2022/03/03 09:03:21;;;;;;;;;;;;;;;;;;5077181;28;1277;-78
2022/03/03 09:05:47;;;;;;;;;;;;;;;;;;5091710;28;1127;-77
2022/03/03 09:08:21;;;;;;;;;;;;;;;;;;5088617;28;1112;-76
2022/03/03 09:10:48;;;;;;;;;;;;;;;;;;5085569;28;1143;-78
2022/03/03 09:13:18;;;;;;;;;;;;;;;;;;5067434;28;1297;-77
2022/03/03 09:15:43;;;;;;;;;;;;;;;;;;5067960;28;2009;-77
2022/03/03 09:18:09;;;;;;;;;;;;;;;;;;5065922;28;1188;-78
2022/03/03 09:20:34;;;;;;;;;;;;;;;;;;5083671;28;1131;-78
2022/03/03 09:23:00;;;;;;;;;;;;;;;;;;5073914;28;1315;-76
2022/03/03 09:25:25;;;;;;;;;;;;;;;;;;5086300;28;1178;-76
2022/03/03 09:27:51;;;;;;;;;;;;;;;;;;5073854;28;1204;-77
2022/03/03 09:30:22;;;;;;;;;;;;;;;;;;5066722;28;1219;-79
2022/03/03 09:32:48;;;;;;;;;;;;;;;;;;5070084;28;1093;-79
2022/03/03 09:35:13;;;;;;;;;;;;;;;;;;5083292;28;1929;-78
2022/03/03 09:37:39;;;;;;;;;;;;;;;;;;5072637;28;1570;-77
2022/03/03 09:40:05;;;;;;;;;;;;;;;;;;5085062;28;1227;-76
2022/03/03 09:42:33;;;;;;;;;;;;;;;;;;5063801;28;1183;-79
2022/03/03 09:44:59;;;;;;;;;;;;;;;;;;5084563;28;1188;-77
2022/03/03 09:47:24;;;;;;;;;;;;;;;;;;5085298;28;1547;-77
2022/03/03 09:49:50;;;;;;;;;;;;;;;;;;5086084;28;1353;-79
2022/03/03 09:52:21;;;;;;;;;;;;;;;;;;5068967;28;1316;-77
2022/03/03 09:54:48;;;;;;;;;;;;;;;;;;5086327;28;1981;-77
2022/03/03 09:57:15;;;;;;;;;;;;;;;;;;5079499;28;1197;-78
2022/03/03 09:59:41;;;;;;;;;;;;;;;;;;5072140;28;1275;-78
2022/03/03 10:02:07;;;;;;;;;;;;;;;;;;5070674;28;1228;-77
2022/03/03 10:04:33;;;;;;;;;;;;;;;;;;5067206;28;1179;-78
2022/03/03 10:07:05;;;;;;;;;;;;;;;;;;5087163;28;1151;-78
2022/03/03 10:09:31;;;;;;;;;;;;;;;;;;5065020;28;1239;-76
2022/03/03 10:12:06;;;;;;;;;;;;;;;;;;5065830;28;1244;-78
2022/03/03 10:14:35;;;;;;;;;;;;;;;;;;5082993;28;2002;-78
2022/03/03 10:17:01;;;;;;;;;;;;;;;;;;5068118;28;1171;-79
2022/03/03 10:19:29;;;;;;;;;;;;;;;;;;5067774;28;1255;-78
2022/03/03 10:21:55;;;;;;;;;;;;;;;;;;5066262;28;1140;-79
2022/03/03 10:24:26;;;;;;;;;;;;;;;;;;5056151;28;1287;-79
2022/03/03 10:26:58;;;;;;;;;;;;;;;;;;5084094;28;1215;-78
2022/03/03 10:29:28;;;;;;;;;;;;;;;;;;5084302;28;1136;-79
2022/03/03 10:31:54;;;;;;;;;;;;;;;;;;5087376;28;1329;-79
2022/03/03 10:34:31;;;;;;;;;;;;;;;;;;5084541;28;1265;-77
2022/03/03 10:37:00;;;;;;;;;;;;;;;;;;5084824;28;1290;-78
2022/03/03 10:39:37;;;;;;;;;;;;;;;;;;5085022;28;1234;-80
2022/03/03 10:42:11;;;;;;;;;;;;;;;;;;5084597;28;1324;-76
2022/03/03 10:44:36;;;;;;;;;;;;;;;;;;5083745;28;1321;-76
2022/03/03 10:47:06;;;;;;;;;;;;;;;;;;5075417;28;1264;-78
2022/03/03 10:49:32;;;;;;;;;;;;;;;;;;5048647;28;1330;-80
2022/03/03 10:52:09;;;;;;;;;;;;;;;;;;5103503;28;1151;-79
2022/03/03 10:54:47;;;;;;;;;;;;;;;;;;5070940;28;1893;-77
2022/03/03 10:57:28;;;;;;;;;;;;;;;;;;5080779;28;996;-77
2022/03/03 10:59:54;;;;;;;;;;;;;;;;;;5065699;28;1167;-77
2022/03/03 11:02:19;;;;;;;;;;;;;;;;;;5065294;28;1203;-77
2022/03/03 11:04:44;;;;;;;;;;;;;;;;;;5060898;28;1163;-79
2022/03/03 11:07:10;;;;;;;;;;;;;;;;;;5099748;28;1262;-77
2022/03/03 11:09:37;;;;;;;;;;;;;;;;;;5084571;28;1210;-76
2022/03/03 11:12:03;;;;;;;;;;;;;;;;;;5103840;28;1148;-76
2022/03/03 11:14:29;;;;;;;;;;;;;;;;;;5101892;28;1945;-77
2022/03/03 11:16:54;;;;;;;;;;;;;;;;;;5086459;28;1321;-76
2022/03/03 11:19:31;;;;;;;;;;;;;;;;;;5084841;28;1254;-77
2022/03/03 11:21:57;;;;;;;;;;;;;;;;;;5073052;28;1238;-78
2022/03/03 11:24:26;;;;;;;;;;;;;;;;;;5110348;28;1131;-78
2022/03/03 11:26:51;;;;;;;;;;;;;;;;;;5067999;28;1171;-78
2022/03/03 11:29:17;;;;;;;;;;;;;;;;;;5069817;28;1215;-78
2022/03/03 11:31:44;;;;;;;;;;;;;;;;;;5084115;28;1175;-78
2022/03/03 11:34:39;;;;;;;;;;;;;;;;;;5078812;28;1255;-76
2022/03/03 11:37:17;;;;;;;;;;;;;;;;;;5081919;28;1258;-78
2022/03/03 11:39:45;;;;;;;;;;;;;;;;;;5099106;28;1103;-78
2022/03/03 11:42:26;;;;;;;;;;;;;;;;;;5095130;28;1127;-77
2022/03/03 11:44:53;;;;;;;;;;;;;;;;;;5079919;28;1294;-78
2022/03/03 11:47:32;;;;;;;;;;;;;;;;;;5067318;28;1359;-76
2022/03/03 11:50:03;;;;;;;;;;;;;;;;;;5089747;28;1167;-77
2022/03/03 11:52:33;;;;;;;;;;;;;;;;;;5070140;28;1206;-77
2022/03/03 11:55:18;;;;;;;;;;;;;;;;;;5081329;28;1897;-76
2022/03/03 11:57:43;;;;;;;;;;;;;;;;;;5080744;28;1312;-77
2022/03/03 12:00:10;;;;;;;;;;;;;;;;;;5087185;28;1128;-74
2022/03/03 12:02:35;;;;;;;;;;;;;;;;;;5066371;28;1254;-76
2022/03/03 12:05:19;;;;;;;;;;;;;;;;;;5067897;28;1192;-76
2022/03/03 12:07:46;;;;;;;;;;;;;;;;;;5084818;28;1324;-78
2022/03/03 12:10:13;;;;;;;;;;;;;;;;;;5105203;28;1092;-77
2022/03/03 12:12:38;;;;;;;;;;;;;;;;;;5081940;28;1206;-77
2022/03/03 12:15:04;;;;;;;;;;;;;;;;;;5049058;28;1902;-77
2022/03/03 12:17:42;;;;;;;;;;;;;;;;;;5076151;28;1129;-78
2022/03/03 12:20:31;;;;;;;;;;;;;;;;;;5083530;28;1294;-77
2022/03/03 12:23:03;;;;;;;;;;;;;;;;;;5067522;28;1188;-77
2022/03/03 12:25:47;;;;;;;;;;;;;;;;;;5069288;28;1284;-77
2022/03/03 12:28:15;;;;;;;;;;;;;;;;;;5084383;28;1305;-77
2022/03/03 12:30:45;;;;;;;;;;;;;;;;;;5075931;28;1309;-77
2022/03/03 12:33:20;;;;;;;;;;;;;;;;;;5068611;28;1203;-77
2022/03/03 12:35:46;;;;;;;;;;;;;;;;;;5083345;28;1965;-77
2022/03/03 12:38:11;;;;;;;;;;;;;;;;;;5086727;28;1312;-76
2022/03/03 12:40:37;;;;;;;;;;;;;;;;;;5080834;28;1228;-76
2022/03/03 12:43:02;;;;;;;;;;;;;;;;;;5082639;28;1163;-77
2022/03/03 12:45:36;;;;;;;;;;;;;;;;;;5070977;28;1433;-77
2022/03/03 12:48:09;;;;;;;;;;;;;;;;;;5103479;28;1096;-76
2022/03/03 12:50:39;;;;;;;;;;;;;;;;;;5080882;28;1032;-78
2022/03/03 12:53:10;;;;;;;;;;;;;;;;;;5070400;28;1242;-77
2022/03/03 12:55:43;;;;;;;;;;;;;;;;;;5079941;28;1894;-84
2022/03/03 12:58:08;;;;;;;;;;;;;;;;;;5084409;28;1203;-75
2022/03/03 13:00:41;;;;;;;;;;;;;;;;;;5049600;28;1242;-73
2022/03/03 13:03:10;;;;;;;;;;;;;;;;;;5065783;28;1179;-75
2022/03/03 13:05:39;;;;;;;;;;;;;;;;;;5065044;28;1433;-75
2022/03/03 13:08:05;;;;;;;;;;;;;;;;;;5068852;28;1355;-81
2022/03/03 13:10:39;;;;;;;;;;;;;;;;;;5087444;28;1196;-83
2022/03/03 13:13:04;;;;;;;;;;;;;;;;;;5069609;28;1158;-80
2022/03/03 13:15:37;;;;;;;;;;;;;;;;;;5076824;28;1901;-79
2022/03/03 13:18:12;;;;;;;;;;;;;;;;;;5083880;28;1032;-81
2022/03/03 13:20:41;;;;;;;;;;;;;;;;;;5083657;28;1036;-81
2022/03/03 13:23:11;;;;;;;;;;;;;;;;;;5071872;28;1179;-82
2022/03/03 13:25:37;;;;;;;;;;;;;;;;;;5072626;28;1186;-81
2022/03/03 13:28:03;;;;;;;;;;;;;;;;;;5051109;28;1198;-79
2022/03/03 13:30:28;;;;;;;;;;;;;;;;;;5072517;28;1140;-81
2022/03/03 13:32:54;;;;;;;;;;;;;;;;;;5079450;28;1187;-79
2022/03/03 13:35:20;;;;;;;;;;;;;;;;;;5062205;28;1947;-78
2022/03/03 13:37:46;;;;;;;;;;;;;;;;;;5052066;28;1191;-80
2022/03/03 13:40:13;;;;;;;;;;;;;;;;;;5078240;28;1313;-79
2022/03/03 13:42:39;;;;;;;;;;;;;;;;;;5071858;28;1288;-81
2022/03/03 13:45:05;;;;;;;;;;;;;;;;;;5074023;28;1389;-78
2022/03/03 13:47:40;;;;;;;;;;;;;;;;;;5069749;28;1142;-79
2022/03/03 13:50:15;;;;;;;;;;;;;;;;;;5061968;28;1190;-78
2022/03/03 13:52:40;;;;;;;;;;;;;;;;;;5063360;28;1509;-80
2022/03/03 13:55:15;;;;;;;;;;;;;;;;;;5055579;28;1933;-79
2022/03/03 13:57:45;;;;;;;;;;;;;;;;;;5067861;28;1215;-79
2022/03/03 14:00:27;;;;;;;;;;;;;;;;;;5085181;28;1282;-79
2022/03/03 14:02:59;;;;;;;;;;;;;;;;;;5076456;28;1179;-79
2022/03/03 14:05:58;;;;;;;;;;;;;;;;;;5061916;28;1269;-78
2022/03/03 14:08:23;;;;;;;;;;;;;;;;;;5060383;28;1353;-79
2022/03/03 14:10:55;;;;;;;;;;;;;;;;;;5072808;28;1225;-80
2022/03/03 14:13:24;;;;;;;;;;;;;;;;;;5073492;28;1227;-81
2022/03/03 14:15:50;;;;;;;;;;;;;;;;;;5069100;28;1902;-80
2022/03/03 14:18:17;;;;;;;;;;;;;;;;;;5061508;28;1208;-79
2022/03/03 14:20:42;;;;;;;;;;;;;;;;;;5070404;28;1182;-80
2022/03/03 14:23:08;;;;;;;;;;;;;;;;;;5064399;28;1256;-78
2022/03/03 14:25:33;;;;;;;;;;;;;;;;;;5073024;28;1140;-79
2022/03/03 14:27:59;;;;;;;;;;;;;;;;;;5061508;28;1241;-78
2022/03/03 14:30:26;;;;;;;;;;;;;;;;;;5059472;28;1202;-79
2022/03/03 14:32:51;;;;;;;;;;;;;;;;;;5074641;28;1243;-78
2022/03/03 14:35:16;;;;;;;;;;;;;;;;;;5079842;28;1906;-78
2022/03/03 14:37:43;;;;;;;;;;;;;;;;;;5062409;28;1194;-81
2022/03/03 14:40:08;;;;;;;;;;;;;;;;;;5061301;28;1346;-81
2022/03/03 14:42:34;;;;;;;;;;;;;;;;;;5071373;28;1231;-79
2022/03/03 14:44:59;;;;;;;;;;;;;;;;;;5045562;28;1305;-79
2022/03/03 14:47:25;;;;;;;;;;;;;;;;;;5074880;28;1188;-78
2022/03/03 14:49:50;;;;;;;;;;;;;;;;;;5052309;28;1309;-78
2022/03/03 14:52:16;;;;;;;;;;;;;;;;;;5077834;28;1172;-79
2022/03/03 14:54:41;;;;;;;;;;;;;;;;;;5056456;28;1905;-76
2022/03/03 14:57:07;;;;;;;;;;;;;;;;;;5066468;28;1345;-81
2022/03/03 14:59:32;;;;;;;;;;;;;;;;;;5080619;28;1224;-80
2022/03/03 15:01:57;;;;;;;;;;;;;;;;;;5080815;28;1230;-81
2022/03/03 15:04:23;;;;;;;;;;;;;;;;;;5083034;28;1239;-80
2022/03/03 15:06:49;;;;;;;;;;;;;;;;;;5070736;28;1128;-81
2022/03/03 15:09:16;;;;;;;;;;;;;;;;;;5103513;28;1026;-81
2022/03/03 15:11:42;;;;;;;;;;;;;;;;;;5063576;28;1335;-83
2022/03/03 15:14:08;;;;;;;;;;;;;;;;;;5055510;28;1420;-82
2022/03/03 15:16:34;;;;;;;;;;;;;;;;;;5059859;28;1959;-80
2022/03/03 15:19:02;;;;;;;;;;;;;;;;;;5058087;28;1191;-83
2022/03/03 15:21:27;;;;;;;;;;;;;;;;;;5068102;28;1700;-80
2022/03/03 15:23:53;;;;;;;;;;;;;;;;;;5101859;28;1112;-86
2022/03/03 15:26:18;;;;;;;;;;;;;;;;;;5066075;28;1199;-77
2022/03/03 15:28:46;;;;;;;;;;;;;;;;;;5085304;28;1159;-80
2022/03/03 15:31:12;;;;;;;;;;;;;;;;;;5074664;28;1147;-80
2022/03/03 15:39:21;;;;;;;;;;;;;;;;;;5052215;28;1329;-81
2022/03/03 15:41:48;;;;;;;;;;;;;;;;;;5082151;28;1413;-80
2022/03/03 15:44:17;;;;;;;;;;;;;;;;;;5095659;28;1135;-81
2022/03/03 15:46:45;;;;;;;;;;;;;;;;;;5081287;28;1207;-79
2022/03/03 15:49:11;;;;;;;;;;;;;;;;;;5075706;28;1287;-81
2022/03/03 15:51:46;;;;;;;;;;;;;;;;;;5071454;28;1236;-80
2022/03/03 15:54:12;;;;;;;;;;;;;;;;;;5087521;28;1246;-82
2022/03/03 15:56:37;;;;;;;;;;;;;;;;;;5082267;28;1979;-83
2022/03/03 15:59:04;;;;;;;;;;;;;;;;;;5078975;28;1167;-81
2022/03/03 16:01:29;;;;;;;;;;;;;;;;;;5083602;28;1183;-81
2022/03/03 16:03:55;;;;;;;;;;;;;;;;;;5066309;28;1221;-82
2022/03/03 16:06:20;;;;;;;;;;;;;;;;;;5066120;28;1300;-82
2022/03/03 16:08:49;;;;;;;;;;;;;;;;;;5081736;28;1177;-82
2022/03/03 16:11:16;;;;;;;;;;;;;;;;;;5083152;28;1465;-82
2022/03/03 16:13:42;;;;;;;;;;;;;;;;;;5082296;28;1232;-82
2022/03/03 16:16:08;;;;;;;;;;;;;;;;;;5063753;28;1957;-81
2022/03/03 16:18:33;;;;;;;;;;;;;;;;;;5075318;28;1193;-80
2022/03/03 16:20:58;;;;;;;;;;;;;;;;;;5065015;28;1132;-80
2022/03/03 16:23:24;;;;;;;;;;;;;;;;;;5068281;28;1215;-81
2022/03/03 16:25:53;;;;;;;;;;;;;;;;;;5075507;28;1277;-79
2022/03/03 16:28:18;;;;;;;;;;;;;;;;;;5068492;28;1112;-80
2022/03/03 16:30:43;;;;;;;;;;;;;;;;;;5079025;28;1179;-75
2022/03/03 16:33:09;;;;;;;;;;;;;;;;;;5077638;28;1257;-75
2022/03/03 16:35:35;;;;;;;;;;;;;;;;;;5064125;28;1898;-76
2022/03/03 16:38:01;;;;;;;;;;;;;;;;;;5078241;28;1177;-75
2022/03/03 16:40:26;;;;;;;;;;;;;;;;;;5066508;28;1366;-76
2022/03/03 16:42:55;;;;;;;;;;;;;;;;;;5065723;28;1096;-76
2022/03/03 16:45:21;;;;;;;;;;;;;;;;;;5061172;28;1147;-76
2022/03/03 16:47:55;;;;;;;;;;;;;;;;;;5075753;28;1337;-75
2022/03/03 16:50:24;;;;;;;;;;;;;;;;;;5066956;28;1148;-76
2022/03/03 16:53:01;;;;;;;;;;;;;;;;;;5065306;28;1194;-76
2022/03/03 16:55:26;;;;;;;;;;;;;;;;;;5070618;28;1923;-75
2022/03/03 16:57:59;;;;;;;;;;;;;;;;;;5079747;28;1242;-75
2022/03/03 17:00:24;;;;;;;;;;;;;;;;;;5064233;28;1296;-75
2022/03/03 17:02:56;;;;;;;;;;;;;;;;;;5074184;28;1378;-75
2022/03/03 17:05:23;;;;;;;;;;;;;;;;;;5063664;28;1480;-76
2022/03/03 17:08:03;;;;;;;;;;;;;;;;;;5076091;28;1008;-76
2022/03/03 17:10:29;;;;;;;;;;;;;;;;;;5056776;28;996;-76